AF12 weather

Sarhawdza Landing Zone Airport
Paktika Province, Afghanistan

Public forecast

Using degrees Celsius for public forecast. Weather courtesy of forecast.io.

METAR (pilot weather report)

Closest report is Hamid Karzai International Airport, 86.9 nm (160.9 km) NNE. Retrieved 2019/08/25 23:50 UTC (59 minutes ago):

OAKB 252350Z VRB02KT CAVOK 19/13 Q1016 NOSIG RMK A3003 BLU BLU

TAF (pilot weather forecast)

Forecast is more than 12 hours old.

Closest forecast is Hamid Karzai International Airport, 86.9 nm (160.9 km) NNE. Retrieved 2019/08/25 00:05 UTC (1 day ago):

TAF OAKB 252305Z 2600/2624 VRB02KT CAVOK TEMPO 2600/2604 7000 BECMG 2606/2608 08012KT FEW050 SCT120 PROB30 TEMPO 2608/2615 02020G35KT 8000 TSRA SCT050CB SCT120 BECMG 2617/2620 VRB02KT CAVOK